Time;durP1;ratioP1;P1;durP2;ratioP2;P2;SDS_P1;SDS_P2;PMS_P1;PMS_P2;Temp;Humidity;BMP_temperature;BMP_pressure;BME280_temperature;BME280_humidity;BME280_pressure;Samples;Min_cycle;Max_cycle;Signal;HPM_P1;HPM_P2
2023/04/15 00:01:33;;;;;;;8.90;5.45;;;;;;;6.70;100.00;99527.81;5054062;28;20052;-92
2023/04/15 00:04:13;;;;;;;9.82;5.20;;;;;;;6.65;100.00;99525.38;5048434;28;20199;-93
2023/04/15 00:07:13;;;;;;;9.30;6.25;;;;;;;6.63;100.00;99521.94;5041919;28;20036;-91
2023/04/15 00:09:46;;;;;;;8.98;6.22;;;;;;;6.31;100.00;99478.69;5048316;28;20055;-91
2023/04/15 00:12:15;;;;;;;11.23;5.78;;;;;;;6.65;100.00;99533.25;5048708;28;20037;-92
2023/04/15 00:14:43;;;;;;;11.02;6.38;;;;;;;6.57;100.00;99509.09;5021508;28;20046;-92
2023/04/15 00:17:44;;;;;;;8.25;5.60;;;;;;;6.67;100.00;99520.91;5035161;28;20153;-94
2023/04/15 00:20:13;;;;;;;9.75;5.47;;;;;;;6.65;100.00;99514.00;5031108;28;20060;-96
2023/04/15 00:22:40;;;;;;;11.70;6.35;;;;;;;6.75;100.00;99528.47;5042741;28;20381;-91
2023/04/15 00:25:10;;;;;;;14.48;6.38;;;;;;;6.75;100.00;99524.97;5042557;28;20041;-92
2023/04/15 00:27:44;;;;;;;10.82;7.05;;;;;;;6.72;100.00;99525.09;5054717;28;20060;-93
2023/04/15 00:30:16;;;;;;;10.32;6.50;;;;;;;6.69;100.00;99516.44;5039315;28;20025;-92
2023/04/15 00:32:44;;;;;;;10.07;6.70;;;;;;;6.68;100.00;99514.72;5051173;28;20044;-91
2023/04/15 00:35:13;;;;;;;8.65;6.20;;;;;;;6.58;100.00;99495.03;5050723;28;20045;-91
2023/04/15 00:37:40;;;;;;;10.75;6.95;;;;;;;6.48;100.00;99480.56;5040030;28;20067;-91
2023/04/15 00:40:19;;;;;;;9.13;6.78;;;;;;;6.47;100.00;99478.84;5046451;28;20041;-93
2023/04/15 00:42:53;;;;;;;9.48;6.82;;;;;;;6.21;100.00;99437.09;5029894;28;20055;-92
2023/04/15 00:45:20;;;;;;;11.15;6.63;;;;;;;6.33;100.00;99453.16;5028922;28;20131;-92
2023/04/15 00:48:10;;;;;;;10.63;6.80;;;;;;;6.64;100.00;99497.34;5057270;28;20116;-93
2023/04/15 00:50:41;;;;;;;8.32;5.90;;;;;;;6.16;100.00;99415.41;5039255;28;20045;-92
2023/04/15 00:53:22;;;;;;;9.40;6.30;;;;;;;6.34;100.00;99454.03;5045327;28;20052;-94
2023/04/15 00:55:54;;;;;;;10.32;6.80;;;;;;;6.54;100.00;99503.09;5059543;28;20124;-93
2023/04/15 00:58:35;;;;;;;9.45;6.47;;;;;;;6.38;100.00;99481.03;5051128;28;20042;-92
2023/04/15 01:01:21;;;;;;;11.68;6.80;;;;;;;6.51;100.00;99506.72;5050477;28;20048;-93
2023/04/15 01:03:53;;;;;;;14.25;6.78;;;;;;;6.50;100.00;99502.38;5070718;28;20045;-92
2023/04/15 01:06:21;;;;;;;11.40;6.80;;;;;;;6.27;100.00;99476.28;5057134;28;20039;-91
2023/04/15 01:09:03;;;;;;;10.45;6.13;;;;;;;6.32;100.00;99501.41;5072987;28;20033;-91
2023/04/15 01:11:33;;;;;;;11.65;7.38;;;;;;;6.09;100.00;99475.28;5041700;28;20088;-92
2023/04/15 01:14:00;;;;;;;11.90;7.07;;;;;;;6.23;100.00;99501.84;5043190;28;20049;-92
2023/04/15 01:16:30;;;;;;;13.52;7.65;;;;;;;5.67;100.00;99412.25;5058950;28;20166;-93
2023/04/15 01:19:02;;;;;;;13.02;7.25;;;;;;;5.96;100.00;99472.34;5013406;28;20042;-90
2023/04/15 01:21:34;;;;;;;11.90;7.25;;;;;;;6.14;100.00;99512.72;5054439;28;20041;-90
2023/04/15 01:24:09;;;;;;;12.57;7.03;;;;;;;5.84;100.00;99467.56;5054698;28;20056;-90
2023/04/15 01:26:39;;;;;;;10.73;6.90;;;;;;;5.82;100.00;99481.69;5039308;28;20405;-92
2023/04/15 01:29:10;;;;;;;10.07;6.97;;;;;;;5.87;100.00;99487.59;5048039;28;20063;-92
2023/04/15 01:31:52;;;;;;;11.57;7.22;;;;;;;5.87;100.00;99498.09;5046635;28;20084;-93
2023/04/15 01:34:21;;;;;;;11.23;6.78;;;;;;;5.88;100.00;99502.44;5061634;28;20056;-91
2023/04/15 01:36:48;;;;;;;10.18;6.43;;;;;;;5.78;100.00;99486.22;5045853;28;20113;-92
2023/04/15 01:39:15;;;;;;;12.45;6.72;;;;;;;5.98;100.00;99515.16;5052823;28;20090;-92
2023/04/15 01:41:47;;;;;;;15.48;7.03;;;;;;;6.05;100.00;99510.50;5049542;28;20078;-91
2023/04/15 01:44:16;;;;;;;10.57;6.53;;;;;;;5.80;100.00;99466.00;5059331;28;20063;-91
2023/04/15 01:46:45;;;;;;;12.95;7.10;;;;;;;5.90;100.00;99477.00;5051963;28;20081;-91
2023/04/15 01:49:18;;;;;;;10.32;6.50;;;;;;;6.04;100.00;99516.69;5056587;28;20029;-90
2023/04/15 01:51:47;;;;;;;11.63;7.00;;;;;;;5.79;100.00;99469.53;5060005;28;20087;-91
2023/04/15 01:54:16;;;;;;;13.55;7.20;;;;;;;5.93;100.00;99498.75;5037782;28;20041;-91
2023/04/15 01:56:50;;;;;;;13.07;7.90;;;;;;;5.89;100.00;99502.41;5042678;28;20056;-91
2023/04/15 01:59:32;;;;;;;10.27;6.75;;;;;;;5.84;100.00;99493.81;5056930;28;20052;-92
2023/04/15 02:02:15;;;;;;;10.98;6.65;;;;;;;5.74;100.00;99482.00;5054032;28;20062;-93
2023/04/15 02:04:42;;;;;;;11.65;6.75;;;;;;;5.81;100.00;99478.22;5051019;28;20040;-92
2023/04/15 02:07:11;;;;;;;13.18;6.95;;;;;;;5.78;100.00;99453.84;5055736;28;20059;-91
2023/04/15 02:09:47;;;;;;;9.25;6.57;;;;;;;6.13;100.00;99495.28;5055538;28;20033;-92
2023/04/15 02:12:15;;;;;;;10.82;6.32;;;;;;;6.05;100.00;99491.25;5049731;28;20075;-93
2023/04/15 02:14:52;;;;;;;10.50;6.57;;;;;;;6.08;100.00;99514.78;5077437;28;20048;-93
2023/04/15 02:17:20;;;;;;;10.57;6.80;;;;;;;5.69;100.00;99457.69;5052138;28;20056;-91
2023/04/15 02:19:58;;;;;;;12.00;6.90;;;;;;;5.89;100.00;99512.94;5045014;28;20053;-93
2023/04/15 02:22:25;;;;;;;11.25;6.55;;;;;;;5.32;100.00;99421.63;5039951;28;20132;-93
2023/04/15 02:25:03;;;;;;;12.70;6.70;;;;;;;5.67;100.00;99491.03;5054811;28;20100;-91
2023/04/15 02:27:31;;;;;;;10.50;6.70;;;;;;;5.61;100.00;99486.06;5057202;28;20049;-91
2023/04/15 02:30:02;;;;;;;12.43;7.03;;;;;;;5.47;100.00;99478.75;5046906;28;20091;-95
2023/04/15 02:32:43;;;;;;;12.77;6.95;;;;;;;5.62;100.00;99491.25;5042981;28;20053;-94
2023/04/15 02:35:18;;;;;;;12.63;6.63;;;;;;;5.35;100.00;99434.63;5034863;28;20045;-92
2023/04/15 02:37:48;;;;;;;9.45;6.20;;;;;;;5.52;100.00;99452.28;5041277;28;20426;-92
2023/04/15 02:40:16;;;;;;;12.07;6.38;;;;;;;5.52;100.00;99442.63;5036093;28;20045;-91
2023/04/15 02:42:49;;;;;;;8.27;5.85;;;;;;;5.84;100.00;99499.09;5025310;28;20045;-90
2023/04/15 02:45:18;;;;;;;8.98;6.35;;;;;;;5.65;100.00;99466.66;5045710;28;20057;-93
2023/04/15 02:47:54;;;;;;;12.90;6.22;;;;;;;5.78;100.00;99509.00;5044775;28;20038;-90
2023/04/15 02:50:22;;;;;;;12.73;6.90;;;;;;;5.61;100.00;99493.94;5044170;28;20056;-93
2023/04/15 02:52:51;;;;;;;9.43;6.18;;;;;;;5.63;100.00;99511.34;5016797;28;20053;-93
2023/04/15 02:55:18;;;;;;;10.70;6.45;;;;;;;5.51;100.00;99495.25;5045788;28;20370;-91
2023/04/15 02:57:46;;;;;;;8.60;5.70;;;;;;;5.48;100.00;99493.59;5046145;28;20179;-88
2023/04/15 03:00:16;;;;;;;8.43;6.07;;;;;;;5.69;100.00;99518.09;5053670;28;20029;-90
2023/04/15 03:02:46;;;;;;;10.98;6.35;;;;;;;5.53;100.00;99477.63;5029942;28;20196;-91
2023/04/15 03:05:13;;;;;;;7.75;5.68;;;;;;;5.75;100.00;99519.63;5038403;28;20034;-89
2023/04/15 03:07:40;;;;;;;8.23;5.85;;;;;;;5.72;100.00;99520.63;5057010;28;20047;-91
2023/04/15 03:10:09;;;;;;;9.77;6.10;;;;;;;5.66;100.00;99515.63;5055802;28;20264;-91
2023/04/15 03:12:42;;;;;;;8.75;6.15;;;;;;;5.55;100.00;99495.03;5050410;28;20072;-91
2023/04/15 03:15:10;;;;;;;9.57;6.28;;;;;;;5.78;100.00;99517.75;5055907;28;20171;-93
2023/04/15 03:17:43;;;;;;;13.05;6.63;;;;;;;5.69;100.00;99504.13;5028965;28;20029;-90
2023/04/15 03:20:13;;;;;;;10.05;6.63;;;;;;;5.70;100.00;99501.44;5048965;28;20060;-91
2023/04/15 03:22:41;;;;;;;13.10;6.25;;;;;;;5.48;100.00;99474.34;5064872;28;20057;-91
2023/04/15 03:25:09;;;;;;;9.30;5.88;;;;;;;5.64;100.00;99515.69;5087045;28;20048;-90
2023/04/15 03:27:38;;;;;;;8.95;6.20;;;;;;;5.57;100.00;99513.38;5035824;28;20072;-91
2023/04/15 03:30:10;;;;;;;11.65;7.00;;;;;;;5.44;100.00;99512.16;5048990;28;20175;-91
2023/04/15 03:32:40;;;;;;;10.50;7.00;;;;;;;5.33;100.00;99509.09;5054013;28;20041;-91
2023/04/15 03:35:08;;;;;;;11.40;6.55;;;;;;;5.14;100.00;99480.09;5058816;28;20033;-89
2023/04/15 03:37:35;;;;;;;11.23;6.72;;;;;;;5.28;100.00;99510.13;5057840;28;20071;-90
2023/04/15 03:40:04;;;;;;;9.13;6.68;;;;;;;5.11;100.00;99469.72;5055250;28;20033;-91
2023/04/15 03:42:33;;;;;;;10.85;6.68;;;;;;;4.85;100.00;99420.91;5056426;28;20064;-91
2023/04/15 03:45:01;;;;;;;8.65;6.70;;;;;;;5.26;100.00;99469.97;5043703;28;20041;-92
2023/04/15 03:47:28;;;;;;;10.32;6.38;;;;;;;5.28;100.00;99462.03;5020588;28;20042;-93
2023/04/15 03:49:56;;;;;;;9.80;6.65;;;;;;;5.57;100.00;99506.34;5040247;28;20075;-93
2023/04/15 03:52:25;;;;;;;10.77;6.53;;;;;;;5.58;100.00;99507.19;5046224;28;20048;-91
2023/04/15 03:54:53;;;;;;;9.70;6.55;;;;;;;5.25;100.00;99442.00;5039110;28;20317;-92
2023/04/15 03:57:20;;;;;;;10.77;6.90;;;;;;;5.48;100.00;99479.63;5019338;28;20112;-93
2023/04/15 03:59:49;;;;;;;10.23;6.95;;;;;;;5.50;100.00;99473.38;5027805;28;20042;-91
2023/04/15 04:02:17;;;;;;;13.00;6.18;;;;;;;5.57;100.00;99477.44;5029085;28;20056;-92
2023/04/15 04:04:45;;;;;;;10.65;6.22;;;;;;;5.14;100.00;99404.00;5037016;28;20072;-92
2023/04/15 04:07:17;;;;;;;10.82;6.55;;;;;;;5.36;100.00;99438.09;5037894;28;20043;-91
2023/04/15 04:09:45;;;;;;;10.90;6.38;;;;;;;5.39;100.00;99446.69;5034520;28;20064;-93
2023/04/15 04:12:13;;;;;;;11.10;6.13;;;;;;;5.63;100.00;99490.34;5038657;28;20037;-92
2023/04/15 04:14:40;;;;;;;11.55;6.32;;;;;;;5.43;100.00;99453.53;5032741;28;20068;-91
2023/04/15 04:17:09;;;;;;;8.75;6.25;;;;;;;5.51;100.00;99485.56;5036437;28;20041;-91
2023/04/15 04:19:36;;;;;;;10.00;6.55;;;;;;;5.32;100.00;99458.38;5032692;28;20049;-92
2023/04/15 04:22:11;;;;;;;10.88;6.40;;;;;;;5.39;100.00;99465.06;5051871;28;20049;-91
2023/04/15 04:24:39;;;;;;;10.50;6.70;;;;;;;5.39;100.00;99470.31;5034662;28;20033;-92
2023/04/15 04:27:13;;;;;;;9.60;6.60;;;;;;;5.50;100.00;99493.53;5033355;28;20049;-92
2023/04/15 04:29:40;;;;;;;13.15;6.95;;;;;;;5.43;100.00;99492.06;5025200;28;20133;-92
2023/04/15 04:32:10;;;;;;;10.80;7.10;;;;;;;5.19;100.00;99458.03;5043499;28;20056;-91
2023/04/15 04:34:38;;;;;;;12.13;7.03;;;;;;;4.93;100.00;99421.44;5043667;28;20044;-91
2023/04/15 04:37:13;;;;;;;9.38;6.57;;;;;;;5.05;100.00;99449.81;5035236;28;20054;-92
2023/04/15 04:39:43;;;;;;;8.80;6.38;;;;;;;5.01;100.00;99450.03;5054599;28;20025;-89
2023/04/15 04:42:17;;;;;;;13.20;7.13;;;;;;;4.62;100.00;99403.44;5053916;28;20052;-90
2023/04/15 04:44:58;;;;;;;12.40;7.30;;;;;;;5.15;100.00;99495.78;5047574;28;20060;-89
2023/04/15 04:47:27;;;;;;;9.20;6.18;;;;;;;5.18;100.00;99502.69;5054648;28;20025;-92
2023/04/15 04:50:00;;;;;;;10.30;6.90;;;;;;;5.19;100.00;99513.13;5053102;28;20022;-93
2023/04/15 04:52:31;;;;;;;12.40;7.43;;;;;;;5.24;100.00;99512.94;5051614;28;20053;-92
2023/04/15 04:57:38;;;;;;;10.75;7.03;;;;;;;5.38;100.00;99515.00;5066186;28;20091;-92
2023/04/15 05:00:11;;;;;;;11.32;6.35;;;;;;;5.29;100.00;99501.34;5062808;28;20029;-91
2023/04/15 05:02:44;;;;;;;12.35;7.13;;;;;;;5.44;100.00;99520.03;5059276;28;20055;-90
2023/04/15 05:05:23;;;;;;;12.43;7.22;;;;;;;5.20;100.00;99469.34;5049145;28;20040;-93
2023/04/15 05:08:07;;;;;;;9.20;6.65;;;;;;;5.09;100.00;99438.28;5062233;28;20047;-94
2023/04/15 05:10:47;;;;;;;11.00;7.38;;;;;;;5.22;100.00;99460.50;5020661;28;20120;-93
2023/04/15 05:13:14;;;;;;;13.52;7.47;;;;;;;5.36;100.00;99491.44;5062943;28;20040;-92
2023/04/15 05:16:16;;;;;;;9.70;6.90;;;;;;;5.55;100.00;99531.81;5071242;28;20129;-92
2023/04/15 05:18:43;;;;;;;11.52;7.78;;;;;;;5.60;100.00;99524.59;5066071;28;20075;-91
2023/04/15 05:21:10;;;;;;;11.00;7.07;;;;;;;5.69;100.00;99530.38;5080006;28;20491;-90
2023/04/15 05:23:40;;;;;;;10.00;7.10;;;;;;;5.72;100.00;99517.13;5083956;28;20029;-92
2023/04/15 05:26:09;;;;;;;;;;;;;;;5.83;100.00;99531.53;5066778;28;20048;-91
2023/04/15 05:28:36;;;;;;;10.82;7.53;;;;;;;5.71;100.00;99500.50;5078881;28;19920;-91
2023/04/15 05:31:10;;;;;;;11.50;7.30;;;;;;;5.87;100.00;99540.16;5084473;28;20055;-91
2023/04/15 05:33:40;;;;;;;11.67;7.30;;;;;;;5.78;100.00;99517.75;5070004;28;20447;-92
2023/04/15 05:36:12;;;;;;;12.38;7.88;;;;;;;5.81;100.00;99522.88;5074256;28;20483;-93
2023/04/15 05:38:39;;;;;;;13.13;7.50;;;;;;;5.89;100.00;99536.56;5073704;28;20040;-92
2023/04/15 05:41:06;;;;;;;10.48;7.63;;;;;;;5.82;100.00;99532.47;5070169;28;20051;-91
2023/04/15 05:43:34;;;;;;;10.98;7.43;;;;;;;5.76;100.00;99522.22;5071961;28;20045;-92
2023/04/15 05:46:02;;;;;;;10.60;7.43;;;;;;;5.45;100.00;99467.47;5067064;28;20064;-92
2023/04/15 05:48:29;;;;;;;10.43;7.28;;;;;;;5.54;100.00;99474.09;5066757;28;20131;-91
2023/04/15 05:50:57;;;;;;;11.75;8.25;;;;;;;5.94;100.00;99537.25;5076943;28;20040;-92
2023/04/15 05:53:42;;;;;;;13.02;7.70;;;;;;;6.07;100.00;99548.09;5082008;28;20090;-93
2023/04/15 05:56:17;;;;;;;10.40;6.93;;;;;;;6.16;100.00;99547.69;5078414;28;20045;-91
2023/04/15 05:58:44;;;;;;;10.05;7.20;;;;;;;5.95;100.00;99501.31;5081203;28;20038;-90
2023/04/15 06:01:34;;;;;;;12.65;7.32;;;;;;;6.27;100.00;99542.00;5077614;28;20049;-91
2023/04/15 06:04:11;;;;;;;12.65;6.80;;;;;;;6.31;100.00;99540.91;5072469;28;20047;-91
2023/04/15 06:06:40;;;;;;;9.63;7.47;;;;;;;6.43;100.00;99552.72;5069687;28;20041;-93
2023/04/15 06:09:08;;;;;;;12.05;7.72;;;;;;;6.53;100.00;99552.22;5074340;28;20063;-90
2023/04/15 06:11:37;;;;;;;10.43;7.35;;;;;;;6.63;100.00;99553.53;5077280;28;20049;-92
2023/04/15 06:14:09;;;;;;;11.73;7.10;;;;;;;6.77;100.00;99552.91;5071703;28;20065;-92
2023/04/15 06:16:36;;;;;;;10.02;7.22;;;;;;;6.78;100.00;99551.13;5059743;28;20068;-92
2023/04/15 06:19:04;;;;;;;11.38;7.30;;;;;;;6.91;100.00;99562.84;5070655;28;20041;-93
2023/04/15 06:21:38;;;;;;;10.55;7.30;;;;;;;6.87;100.00;99545.47;5069483;28;20036;-93
2023/04/15 06:24:06;;;;;;;11.40;7.35;;;;;;;6.96;100.00;99545.88;5072625;28;20055;-92
2023/04/15 06:26:42;;;;;;;11.18;6.93;;;;;;;6.89;100.00;99515.53;5038629;28;20093;-94
2023/04/15 06:29:09;;;;;;;10.60;7.07;;;;;;;7.29;100.00;99567.19;5052089;28;20045;-93
2023/04/15 06:31:48;;;;;;;10.68;7.57;;;;;;;6.95;100.00;99488.06;5060293;28;20120;-92
2023/04/15 06:34:18;;;;;;;10.80;6.95;;;;;;;7.34;100.00;99530.97;5061561;28;20047;-90
2023/04/15 06:36:59;;;;;;;8.65;6.97;;;;;;;7.70;100.00;99557.31;5064257;28;20071;-92
2023/04/15 06:39:32;;;;;;;11.82;7.20;;;;;;;7.55;100.00;99525.59;5047821;28;20043;-92
2023/04/15 06:42:00;;;;;;;15.45;7.57;;;;;;;7.54;100.00;99516.84;5050568;28;20051;-92
2023/04/15 06:44:28;;;;;;;12.95;7.38;;;;;;;7.35;100.00;99490.53;5065924;28;20079;-92
2023/04/15 06:47:01;;;;;;;11.70;8.00;;;;;;;7.86;100.00;99575.88;5068109;28;20033;-90
2023/04/15 06:49:32;;;;;;;9.15;7.10;;;;;;;7.48;100.00;99527.66;5062784;28;20067;-93
2023/04/15 06:52:03;;;;;;;11.30;7.60;;;;;;;7.47;100.00;99538.25;5046837;28;20038;-93
2023/04/15 06:54:35;;;;;;;11.07;8.02;;;;;;;7.34;100.00;99530.97;5075815;28;20033;-91
2023/04/15 06:57:19;;;;;;;12.18;7.88;;;;;;;7.35;100.00;99537.06;5069784;28;20101;-91
2023/04/15 06:59:51;;;;;;;11.02;8.15;;;;;;;7.61;100.00;99580.59;5065111;28;20116;-91
2023/04/15 07:02:22;;;;;;;12.93;7.97;;;;;;;7.71;100.00;99584.53;5075601;28;20104;-92
2023/04/15 07:05:06;;;;;;;10.93;7.47;;;;;;;7.75;100.00;99588.69;5076427;28;20095;-91
2023/04/15 07:07:55;;;;;;;9.68;7.60;;;;;;;7.81;100.00;99592.84;5068655;28;20045;-93
2023/04/15 07:10:41;;;;;;;11.73;7.30;;;;;;;7.75;100.00;99567.63;5068663;28;20045;-92
2023/04/15 07:13:20;;;;;;;10.13;7.18;;;;;;;7.84;100.00;99568.97;5063943;28;20046;-93
2023/04/15 07:15:55;;;;;;;10.10;7.47;;;;;;;7.93;100.00;99565.88;5054648;28;20045;-93
2023/04/15 07:18:22;;;;;;;9.98;6.95;;;;;;;7.90;100.00;99543.16;5051740;28;20042;-92
2023/04/15 07:20:51;;;;;;;9.93;7.28;;;;;;;8.24;100.00;99591.56;5060123;28;20049;-93
2023/04/15 07:23:26;;;;;;;12.00;7.30;;;;;;;8.31;100.00;99587.72;5061442;28;20045;-92
2023/04/15 07:26:00;;;;;;;10.20;7.43;;;;;;;8.43;100.00;99587.09;5058902;28;20073;-91
2023/04/15 07:28:32;;;;;;;8.77;6.68;;;;;;;8.50;100.00;99572.66;5037347;28;20042;-92
2023/04/15 07:31:15;;;;;;;11.48;7.28;;;;;;;8.29;100.00;99502.53;5062167;28;20061;-91
2023/04/15 07:33:46;;;;;;;9.63;6.93;;;;;;;8.96;100.00;99591.41;5050070;28;20557;-94
2023/04/15 07:36:16;;;;;;;12.32;7.95;;;;;;;8.97;100.00;99566.69;5045195;28;20028;-92
2023/04/15 07:38:43;;;;;;;9.70;7.28;;;;;;;8.72;100.00;99535.44;5049586;28;20069;-92
2023/04/15 07:41:21;;;;;;;9.95;6.85;;;;;;;9.09;100.00;99587.16;5050499;28;20038;-92
2023/04/15 07:43:51;;;;;;;8.48;7.20;;;;;;;9.01;100.00;99562.94;5046290;28;20041;-93
2023/04/15 07:46:18;;;;;;;11.93;7.90;;;;;;;9.33;100.00;99596.38;5035811;28;20049;-93
2023/04/15 07:48:53;;;;;;;12.25;7.47;;;;;;;9.21;100.00;99549.50;5049932;28;20059;-91
2023/04/15 07:51:21;;;;;;;10.57;7.60;;;;;;;9.31;100.00;99534.84;5046749;28;20045;-93
2023/04/15 07:53:50;;;;;;;10.40;7.35;;;;;;;9.62;100.00;99565.69;5046014;28;20091;-94
2023/04/15 07:56:17;;;;;;;9.77;7.95;;;;;;;9.87;100.00;99570.47;5053639;28;20036;-93
2023/04/15 07:59:03;;;;;;;12.07;8.05;;;;;;;10.04;100.00;99574.78;5060252;28;20052;-94
2023/04/15 08:01:31;;;;;;;;;;;;;;;10.22;100.00;99586.13;5064366;28;20036;-92
2023/04/15 08:03:58;;;;;;;11.30;7.50;;;;;;;9.89;100.00;99517.50;5059709;28;20105;-92
2023/04/15 08:06:26;;;;;;;10.48;8.10;;;;;;;10.36;100.00;99579.09;5066592;28;20039;-91
2023/04/15 08:09:07;;;;;;;9.77;7.65;;;;;;;10.43;100.00;99580.41;5061214;28;20069;-91
2023/04/15 08:11:40;;;;;;;10.75;8.13;;;;;;;10.51;100.00;99593.22;5064527;28;20107;-92
2023/04/15 08:14:25;;;;;;;;;;;;;;;10.56;100.00;99599.06;5457534;22;20051;31
2023/04/15 08:16:52;;;;;;;10.38;7.88;;;;;;;10.32;100.00;99544.94;5065590;28;19909;-91
2023/04/15 08:19:24;;;;;;;13.48;8.73;;;;;;;10.40;99.08;99553.28;5049353;28;20041;-89
2023/04/15 08:21:52;;;;;;;10.43;7.82;;;;;;;10.43;99.44;99553.09;5047873;28;20071;-90
2023/04/15 08:24:20;;;;;;;12.40;8.80;;;;;;;10.80;100.00;99592.31;5056404;28;20026;-92
2023/04/15 08:26:48;;;;;;;10.90;8.25;;;;;;;10.73;99.82;99561.84;5045173;28;20077;-90
2023/04/15 08:29:15;;;;;;;9.80;7.47;;;;;;;11.14;96.58;99591.09;5060919;28;20052;-91
2023/04/15 08:31:46;;;;;;;12.20;7.63;;;;;;;11.00;94.84;99547.88;5053683;28;20036;-91
2023/04/15 08:34:14;;;;;;;8.93;7.90;;;;;;;11.51;92.41;99592.28;5065343;28;20064;-91
2023/04/15 08:36:43;;;;;;;11.63;7.78;;;;;;;11.75;91.02;99592.53;5055294;28;20037;-92
2023/04/15 08:39:12;;;;;;;11.23;7.78;;;;;;;11.90;89.88;99585.41;5052848;28;20052;-92
2023/04/15 08:41:46;;;;;;;11.05;7.75;;;;;;;12.03;88.33;99596.06;5064481;28;20567;-92
2023/04/15 08:44:14;;;;;;;7.90;7.10;;;;;;;12.15;87.44;99580.19;5059079;28;20040;-90
2023/04/15 08:46:44;;;;;;;9.93;6.88;;;;;;;12.25;80.98;99573.31;5045659;28;20053;-94
2023/04/15 08:49:17;;;;;;;6.65;5.78;;;;;;;12.49;73.57;99591.19;5037876;28;20037;-90
2023/04/15 08:51:55;;;;;;;8.95;6.03;;;;;;;12.24;71.78;99547.72;5050729;28;20454;-93
2023/04/15 08:54:22;;;;;;;8.73;5.63;;;;;;;12.27;74.05;99544.88;5036656;28;20085;-93
2023/04/15 08:56:57;;;;;;;7.03;5.55;;;;;;;12.70;70.81;99596.88;5065620;28;20049;-93
2023/04/15 08:59:25;;;;;;;7.40;5.22;;;;;;;12.63;67.84;99577.81;5068132;28;20051;-92
2023/04/15 09:01:54;;;;;;;8.75;6.00;;;;;;;12.38;65.78;99536.16;5042408;28;20053;-92
2023/04/15 09:04:27;;;;;;;6.15;5.20;;;;;;;12.58;66.78;99590.59;5063813;28;20034;-92
2023/04/15 09:06:59;;;;;;;8.90;4.88;;;;;;;12.57;67.07;99591.53;5045681;28;20052;-93
2023/04/15 09:09:28;;;;;;;5.97;4.35;;;;;;;12.34;67.49;99529.38;5054903;28;20041;-91
2023/04/15 09:11:56;;;;;;;8.70;4.95;;;;;;;12.34;63.80;99515.25;5063967;28;20062;-91
2023/04/15 09:14:28;;;;;;;8.93;5.07;;;;;;;12.76;64.45;99591.13;5055257;28;20041;-92
2023/04/15 09:17:00;;;;;;;5.70;4.40;;;;;;;12.96;63.28;99601.22;5051560;28;20091;-93
2023/04/15 09:19:29;;;;;;;6.45;4.55;;;;;;;12.90;63.00;99597.22;5052806;28;20057;-94
2023/04/15 09:22:03;;;;;;;7.35;4.15;;;;;;;12.84;63.51;99589.66;5053040;28;20045;-94
2023/04/15 09:24:59;;;;;;;4.85;4.18;;;;;;;12.87;63.23;99605.38;5044243;28;20042;-92
2023/04/15 09:27:50;;;;;;;6.63;4.05;;;;;;;12.95;63.21;99615.47;5063094;28;20099;-91
2023/04/15 09:30:37;;;;;;;6.10;4.30;;;;;;;12.92;61.06;99618.34;5043925;28;20084;-93
2023/04/15 09:33:19;;;;;;;5.53;4.65;;;;;;;12.40;62.77;99565.28;5044928;28;20067;-92
2023/04/15 09:36:04;;;;;;;5.60;3.95;;;;;;;12.56;62.77;99616.41;5058115;28;20042;-93
2023/04/15 09:38:33;;;;;;;4.60;3.67;;;;;;;12.16;64.13;99570.41;5060904;28;20056;-91
2023/04/15 09:41:03;;;;;;;6.15;3.63;;;;;;;12.43;63.44;99621.69;5057276;28;20059;-93
2023/04/15 09:43:40;;;;;;;4.80;3.72;;;;;;;12.05;64.50;99572.94;5058563;28;20051;-92
2023/04/15 09:46:09;;;;;;;5.15;3.22;;;;;;;12.35;64.92;99628.44;5046421;28;20075;-92
2023/04/15 09:48:39;;;;;;;8.65;3.58;;;;;;;12.40;65.21;99640.47;5051340;28;20107;-91
2023/04/15 09:51:40;;;;;;;4.28;3.45;;;;;;;12.37;64.10;99639.81;5046799;28;20053;-94
2023/04/15 09:54:22;;;;;;;4.43;3.35;;;;;;;12.27;64.53;99634.28;5033763;28;20117;-92
2023/04/15 09:57:06;;;;;;;5.53;2.95;;;;;;;12.29;63.63;99632.34;5067074;28;20057;-91
2023/04/15 09:59:39;;;;;;;5.03;3.22;;;;;;;12.39;63.92;99645.88;5049904;28;20065;-92
2023/04/15 10:02:11;;;;;;;4.05;3.05;;;;;;;12.40;62.77;99642.28;5060973;28;20033;-92
2023/04/15 10:04:40;;;;;;;4.00;2.90;;;;;;;12.32;62.37;99642.75;5055331;28;20107;-91
2023/04/15 10:07:31;;;;;;;3.03;2.60;;;;;;;12.33;64.45;99649.78;5072865;28;20279;-91
2023/04/15 10:10:15;;;;;;;3.85;2.90;;;;;;;12.21;62.36;99632.00;5046333;28;20077;-91
2023/04/15 10:12:47;;;;;;;3.53;2.67;;;;;;;12.20;63.77;99649.75;5053160;28;20124;-91
2023/04/15 10:15:18;;;;;;;4.35;3.00;;;;;;;11.94;63.39;99627.56;5059794;28;20115;-92
2023/04/15 10:17:59;;;;;;;4.35;2.75;;;;;;;12.15;64.99;99667.75;5055372;28;20042;-91
2023/04/15 10:20:34;;;;;;;6.07;3.58;;;;;;;11.90;63.12;99634.00;5044675;28;20105;-93
2023/04/15 10:23:11;;;;;;;5.07;3.25;;;;;;;11.95;64.03;99668.22;5069538;28;20109;-92
2023/04/15 10:25:55;;;;;;;4.18;2.95;;;;;;;11.64;65.08;99633.94;5058141;28;20049;-91
2023/04/15 10:28:32;;;;;;;4.10;2.75;;;;;;;11.69;65.04;99629.19;5030759;28;20026;-91
2023/04/15 10:31:06;;;;;;;3.78;2.80;;;;;;;12.06;64.67;99678.13;5050609;28;20080;-89
2023/04/15 10:33:37;;;;;;;4.60;2.97;;;;;;;12.21;65.13;99675.34;5069590;28;20029;-89
2023/04/15 10:36:19;;;;;;;4.25;3.10;;;;;;;12.30;63.29;99673.88;5044245;28;20042;-92
2023/04/15 10:38:46;;;;;;;3.10;2.80;;;;;;;12.54;62.70;99682.03;5050878;28;20059;-92
2023/04/15 10:41:35;;;;;;;3.40;3.10;;;;;;;12.60;61.89;99679.81;5048219;28;20042;-91
2023/04/15 10:44:04;;;;;;;3.60;2.40;;;;;;;12.80;61.83;99698.88;5072980;28;20083;-90
2023/04/15 10:46:43;;;;;;;3.50;2.70;;;;;;;12.83;60.94;99686.25;5075367;28;20100;-93
2023/04/15 10:49:25;;;;;;;3.97;2.70;;;;;;;12.86;61.16;99691.38;5048761;28;20038;-90
2023/04/15 10:51:58;;;;;;;5.50;2.88;;;;;;;12.71;60.69;99670.28;5062875;28;20037;-92
2023/04/15 10:54:32;;;;;;;5.38;2.88;;;;;;;12.74;61.77;99689.53;5047276;28;20053;-94
2023/04/15 10:57:02;;;;;;;4.97;3.45;;;;;;;12.63;63.24;99678.75;5042305;28;20688;-91
2023/04/15 10:59:57;;;;;;;4.13;2.70;;;;;;;12.63;62.28;99702.66;5030675;28;20052;-91
2023/04/15 11:02:57;;;;;;;3.50;2.90;;;;;;;11.81;62.99;99605.41;5075133;28;20093;-90
2023/04/15 11:05:44;;;;;;;7.05;3.08;;;;;;;12.34;65.59;99693.97;5067493;28;20029;-89
2023/04/15 11:08:16;;;;;;;3.47;2.85;;;;;;;11.91;63.78;99603.03;5057012;28;20038;-93
2023/04/15 11:11:04;;;;;;;3.65;2.88;;;;;;;12.43;63.52;99692.53;5038616;28;20065;-91
2023/04/15 11:13:54;;;;;;;3.03;2.38;;;;;;;12.26;66.00;99641.38;5037026;28;20042;-92
2023/04/15 11:20:28;;;;;;;3.30;2.60;;;;;;;12.40;60.81;99613.06;5047936;28;20602;-90
2023/04/15 11:23:32;;;;;;;3.03;2.45;;;;;;;13.02;62.23;99679.69;5078074;28;20036;-92
2023/04/15 11:26:35;;;;;;;3.58;2.70;;;;;;;13.10;62.73;99634.81;5049622;28;20041;-92
2023/04/15 11:29:17;;;;;;;3.75;2.70;;;;;;;13.39;60.99;99678.03;5065322;28;20067;-91
2023/04/15 11:31:52;;;;;;;2.97;2.60;;;;;;;13.38;64.74;99718.91;5061907;28;20045;-91
2023/04/15 11:34:24;;;;;;;3.45;2.67;;;;;;;12.78;65.88;99637.03;5065709;28;20077;-91
2023/04/15 11:37:00;;;;;;;3.47;2.53;;;;;;;13.15;67.14;99717.81;5420097;22;20041;-92
2023/04/15 11:40:17;;;;;;;4.07;2.90;;;;;;;12.96;72.60;99729.66;5087853;28;20092;-91
2023/04/15 11:43:20;;;;;;;3.30;3.00;;;;;;;12.46;78.32;99730.31;5077738;28;20052;-92
2023/04/15 11:46:34;;;;;;;3.25;2.95;;;;;;;11.82;85.20;99664.63;5084767;28;20040;-92
2023/04/15 11:49:32;;;;;;;4.78;3.05;;;;;;;12.11;88.13;99716.72;5081061;28;20058;-91
2023/04/15 11:52:10;;;;;;;4.05;3.33;;;;;;;12.00;89.44;99697.09;5084507;28;20075;-91
2023/04/15 11:55:43;;;;;;;3.70;3.20;;;;;;;12.28;91.11;99744.78;5065993;28;20017;-93
2023/04/15 11:58:26;;;;;;;5.18;3.67;;;;;;;12.26;96.11;99752.88;5077724;28;20065;-91
2023/04/15 12:00:59;;;;;;;4.32;3.63;;;;;;;11.92;98.78;99705.56;5080676;28;20072;-91
2023/04/15 12:03:58;;;;;;;5.35;3.22;;;;;;;11.82;100.00;99730.94;5077692;28;20058;-91
2023/04/15 12:07:06;;;;;;;4.20;3.55;;;;;;;11.75;100.00;99769.38;5089355;28;20035;-91
2023/04/15 12:09:59;;;;;;;5.05;3.75;;;;;;;11.58;100.00;99771.28;5081709;28;20044;-89